CNB weather

Coonamble Airport
New South Wales, Australia

Public forecast

Using degrees Celsius for public forecast. Weather courtesy of forecast.io.

METAR (pilot weather report)

Retrieved 2019/07/21 10:00 UTC (38 minutes ago):

YCNM 211000Z AUTO 01006KT //// // ////// 16/02 Q1016

TAF (pilot weather forecast)

Closest forecast is Dubbo City Regional Airport, 74.7 nm (138.4 km) S. Retrieved 2019/07/21 06:36 UTC (4 hours ago):

TAF YSDU 210527Z 2106/2124 34012KT CAVOK FM211000 02006KT CAVOK